sensor_id;sensor_type;location;lat;lon;timestamp;pressure;altitude;pressure_sealevel;temperature;humidity
7182;BME280;3632;42.724;23.298;2023-05-03T00:01:28;95317.66;;;11.61;43.89
7182;BME280;3632;42.724;23.298;2023-05-03T00:03:58;94864.09;;;9.63;44.03
7182;BME280;3632;42.724;23.298;2023-05-03T00:06:26;95661.72;;;14.67;44.24
7182;BME280;3632;42.724;23.298;2023-05-03T00:08:55;95662.53;;;14.57;43.35
7182;BME280;3632;42.724;23.298;2023-05-03T00:11:24;95280.63;;;11.45;43.96
7182;BME280;3632;42.724;23.298;2023-05-03T00:14:03;95357.81;;;12.70;43.79
7182;BME280;3632;42.724;23.298;2023-05-03T00:16:44;95304.69;;;11.53;43.18
7182;BME280;3632;42.724;23.298;2023-05-03T00:19:11;95518.88;;;13.61;43.59
7182;BME280;3632;42.724;23.298;2023-05-03T00:21:40;95631.28;;;14.04;43.88
7182;BME280;3632;42.724;23.298;2023-05-03T00:24:07;95407.03;;;12.02;43.71
7182;BME280;3632;42.724;23.298;2023-05-03T00:26:38;95667.31;;;14.22;44.27
7182;BME280;3632;42.724;23.298;2023-05-03T00:29:05;95697.03;;;14.25;44.65
7182;BME280;3632;42.724;23.298;2023-05-03T00:31:32;95767.31;;;14.22;44.18
7182;BME280;3632;42.724;23.298;2023-05-03T00:33:59;95187.22;;;11.13;44.27
7182;BME280;3632;42.724;23.298;2023-05-03T00:36:26;95328.09;;;11.37;44.22
7182;BME280;3632;42.724;23.298;2023-05-03T00:38:54;95383.50;;;12.29;44.19
7182;BME280;3632;42.724;23.298;2023-05-03T00:41:21;95295.75;;;10.74;44.21
7182;BME280;3632;42.724;23.298;2023-05-03T00:43:51;95874.38;;;14.09;44.30
7182;BME280;3632;42.724;23.298;2023-05-03T00:46:18;95748.22;;;13.96;44.67
7182;BME280;3632;42.724;23.298;2023-05-03T00:48:47;95455.91;;;12.39;44.55
7182;BME280;3632;42.724;23.298;2023-05-03T00:51:14;95672.97;;;14.06;43.94
7182;BME280;3632;42.724;23.298;2023-05-03T00:53:43;94944.44;;;8.68;44.35
7182;BME280;3632;42.724;23.298;2023-05-03T00:56:10;94918.19;;;9.01;44.56
7182;BME280;3632;42.724;23.298;2023-05-03T00:58:38;95681.16;;;14.00;45.01
7182;BME280;3632;42.724;23.298;2023-05-03T01:01:08;95678.63;;;14.10;44.84
7182;BME280;3632;42.724;23.298;2023-05-03T01:03:35;95673.63;;;13.99;45.42
7182;BME280;3632;42.724;23.298;2023-05-03T01:06:09;95821.66;;;13.65;44.99
7182;BME280;3632;42.724;23.298;2023-05-03T01:08:43;95604.47;;;12.98;45.19
7182;BME280;3632;42.724;23.298;2023-05-03T01:11:18;95190.91;;;10.46;45.11
7182;BME280;3632;42.724;23.298;2023-05-03T01:13:53;95337.34;;;11.90;45.42
7182;BME280;3632;42.724;23.298;2023-05-03T01:16:26;95031.44;;;9.48;45.21
7182;BME280;3632;42.724;23.298;2023-05-03T01:18:57;95358.75;;;11.58;45.18
7182;BME280;3632;42.724;23.298;2023-05-03T01:21:28;94896.84;;;9.25;44.76
7182;BME280;3632;42.724;23.298;2023-05-03T01:24:03;95333.38;;;11.24;44.92
7182;BME280;3632;42.724;23.298;2023-05-03T01:26:34;94987.13;;;9.62;45.08
7182;BME280;3632;42.724;23.298;2023-05-03T01:29:02;95490.53;;;11.59;46.15
7182;BME280;3632;42.724;23.298;2023-05-03T01:31:33;95224.34;;;10.53;46.04
7182;BME280;3632;42.724;23.298;2023-05-03T01:34:17;95625.53;;;13.32;45.42
7182;BME280;3632;42.724;23.298;2023-05-03T01:36:49;95378.38;;;11.78;46.10
7182;BME280;3632;42.724;23.298;2023-05-03T01:39:20;95599.63;;;13.25;46.28
7182;BME280;3632;42.724;23.298;2023-05-03T01:41:51;95539.13;;;12.94;46.10
7182;BME280;3632;42.724;23.298;2023-05-03T01:44:19;95259.41;;;11.24;46.23
7182;BME280;3632;42.724;23.298;2023-05-03T01:46:48;94870.81;;;8.46;47.02
7182;BME280;3632;42.724;23.298;2023-05-03T01:49:15;95265.06;;;10.21;46.26
7182;BME280;3632;42.724;23.298;2023-05-03T01:51:43;94916.47;;;8.13;46.45
7182;BME280;3632;42.724;23.298;2023-05-03T01:54:10;94879.06;;;8.70;46.58
7182;BME280;3632;42.724;23.298;2023-05-03T01:56:37;95577.72;;;13.12;45.90
7182;BME280;3632;42.724;23.298;2023-05-03T01:59:08;95476.16;;;11.58;47.06
7182;BME280;3632;42.724;23.298;2023-05-03T02:01:35;95686.97;;;13.32;47.13
7182;BME280;3632;42.724;23.298;2023-05-03T02:04:02;94968.94;;;8.69;46.77
7182;BME280;3632;42.724;23.298;2023-05-03T02:06:33;95561.84;;;12.46;46.50
7182;BME280;3632;42.724;23.298;2023-05-03T02:09:04;94775.16;;;8.36;46.43
7182;BME280;3632;42.724;23.298;2023-05-03T02:11:31;94871.72;;;8.23;46.67
7182;BME280;3632;42.724;23.298;2023-05-03T02:13:58;95705.38;;;13.26;47.14
7182;BME280;3632;42.724;23.298;2023-05-03T02:16:27;95633.16;;;13.53;46.99
7182;BME280;3632;42.724;23.298;2023-05-03T02:18:54;95224.88;;;10.14;46.79
7182;BME280;3632;42.724;23.298;2023-05-03T02:21:26;95585.13;;;13.36;47.29
7182;BME280;3632;42.724;23.298;2023-05-03T02:23:53;95228.72;;;11.15;46.80
7182;BME280;3632;42.724;23.298;2023-05-03T02:26:21;95418.13;;;11.60;47.21
7182;BME280;3632;42.724;23.298;2023-05-03T02:28:49;95629.13;;;13.60;47.14
7182;BME280;3632;42.724;23.298;2023-05-03T02:31:16;95711.69;;;13.73;47.69
7182;BME280;3632;42.724;23.298;2023-05-03T02:33:47;95227.38;;;10.99;47.32
7182;BME280;3632;42.724;23.298;2023-05-03T02:36:14;95326.75;;;11.74;47.25
7182;BME280;3632;42.724;23.298;2023-05-03T02:38:42;95181.44;;;10.37;46.94
7182;BME280;3632;42.724;23.298;2023-05-03T02:41:11;95376.63;;;11.99;47.27
7182;BME280;3632;42.724;23.298;2023-05-03T02:43:38;94985.75;;;8.37;48.52
7182;BME280;3632;42.724;23.298;2023-05-03T02:46:09;95357.19;;;11.45;48.61
7182;BME280;3632;42.724;23.298;2023-05-03T02:48:38;95643.75;;;13.39;47.81
7182;BME280;3632;42.724;23.298;2023-05-03T02:51:07;95250.41;;;10.88;48.02
7182;BME280;3632;42.724;23.298;2023-05-03T02:53:34;95619.16;;;13.26;47.45
7182;BME280;3632;42.724;23.298;2023-05-03T02:56:01;95681.22;;;13.40;48.62
7182;BME280;3632;42.724;23.298;2023-05-03T02:58:28;95642.81;;;13.40;48.10
7182;BME280;3632;42.724;23.298;2023-05-03T03:00:55;94814.94;;;8.24;47.99
7182;BME280;3632;42.724;23.298;2023-05-03T03:03:23;94914.44;;;8.29;48.28
7182;BME280;3632;42.724;23.298;2023-05-03T03:05:50;95291.91;;;10.90;48.07
7182;BME280;3632;42.724;23.298;2023-05-03T03:08:19;95466.84;;;12.20;47.78
7182;BME280;3632;42.724;23.298;2023-05-03T03:10:52;95655.19;;;13.35;48.49
7182;BME280;3632;42.724;23.298;2023-05-03T03:13:38;95001.38;;;8.44;47.85
7182;BME280;3632;42.724;23.298;2023-05-03T03:16:13;94938.69;;;8.55;48.40
7182;BME280;3632;42.724;23.298;2023-05-03T03:18:45;94961.00;;;8.28;48.23
7182;BME280;3632;42.724;23.298;2023-05-03T03:21:14;95149.59;;;10.32;48.64
7182;BME280;3632;42.724;23.298;2023-05-03T03:23:55;95267.16;;;10.16;48.32
7182;BME280;3632;42.724;23.298;2023-05-03T03:26:24;95201.31;;;9.56;48.72
7182;BME280;3632;42.724;23.298;2023-05-03T03:28:53;95497.41;;;11.47;49.14
7182;BME280;3632;42.724;23.298;2023-05-03T03:31:27;95816.16;;;13.28;49.30
7182;BME280;3632;42.724;23.298;2023-05-03T03:33:55;95671.19;;;13.27;49.26
7182;BME280;3632;42.724;23.298;2023-05-03T03:36:22;94891.56;;;8.18;49.96
7182;BME280;3632;42.724;23.298;2023-05-03T03:38:51;95674.59;;;13.16;50.38
7182;BME280;3632;42.724;23.298;2023-05-03T03:41:21;95394.38;;;11.27;50.72
7182;BME280;3632;42.724;23.298;2023-05-03T03:43:51;95401.03;;;11.39;50.12
7182;BME280;3632;42.724;23.298;2023-05-03T03:46:18;94958.63;;;8.71;50.21
7182;BME280;3632;42.724;23.298;2023-05-03T03:48:46;95742.66;;;13.19;50.32
7182;BME280;3632;42.724;23.298;2023-05-03T03:51:15;95359.28;;;10.54;50.56
7182;BME280;3632;42.724;23.298;2023-05-03T03:53:43;94848.88;;;8.01;51.05
7182;BME280;3632;42.724;23.298;2023-05-03T03:56:11;95135.81;;;9.80;50.80
7182;BME280;3632;42.724;23.298;2023-05-03T03:58:45;94908.66;;;8.27;51.29
7182;BME280;3632;42.724;23.298;2023-05-03T04:01:12;95363.56;;;11.08;51.10
7182;BME280;3632;42.724;23.298;2023-05-03T04:03:39;95633.00;;;12.82;50.48
7182;BME280;3632;42.724;23.298;2023-05-03T04:06:06;94929.66;;;8.40;50.93
7182;BME280;3632;42.724;23.298;2023-05-03T04:08:33;95202.31;;;10.20;50.91
7182;BME280;3632;42.724;23.298;2023-05-03T04:11:01;95353.34;;;11.19;50.01
7182;BME280;3632;42.724;23.298;2023-05-03T04:13:30;94889.59;;;8.10;50.71
7182;BME280;3632;42.724;23.298;2023-05-03T04:15:57;95676.50;;;13.03;51.49
7182;BME280;3632;42.724;23.298;2023-05-03T04:18:25;94930.59;;;8.39;50.95
7182;BME280;3632;42.724;23.298;2023-05-03T04:20:52;95742.66;;;13.19;50.26
7182;BME280;3632;42.724;23.298;2023-05-03T04:23:19;95103.38;;;9.39;50.41
7182;BME280;3632;42.724;23.298;2023-05-03T04:25:47;95323.78;;;10.74;50.63
7182;BME280;3632;42.724;23.298;2023-05-03T04:28:14;95690.75;;;11.78;50.60
7182;BME280;3632;42.724;23.298;2023-05-03T04:30:43;95503.63;;;11.65;50.46
7182;BME280;3632;42.724;23.298;2023-05-03T04:33:12;95712.97;;;12.96;50.57
7182;BME280;3632;42.724;23.298;2023-05-03T04:35:39;94931.38;;;8.17;50.48
7182;BME280;3632;42.724;23.298;2023-05-03T04:38:06;95740.28;;;13.27;50.19
7182;BME280;3632;42.724;23.298;2023-05-03T04:40:34;95726.97;;;13.12;50.88
7182;BME280;3632;42.724;23.298;2023-05-03T04:43:01;95688.16;;;12.75;51.15
7182;BME280;3632;42.724;23.298;2023-05-03T04:45:29;95749.41;;;12.88;51.64
7182;BME280;3632;42.724;23.298;2023-05-03T04:47:59;95744.53;;;12.85;54.26
7182;BME280;3632;42.724;23.298;2023-05-03T04:50:33;95364.06;;;9.69;52.76
7182;BME280;3632;42.724;23.298;2023-05-03T04:56:40;95776.34;;;12.49;54.71
7182;BME280;3632;42.724;23.298;2023-05-03T04:59:24;95718.97;;;12.42;59.17
7182;BME280;3632;42.724;23.298;2023-05-03T05:02:04;95066.16;;;7.67;57.04
7182;BME280;3632;42.724;23.298;2023-05-03T05:04:35;95473.28;;;10.75;58.67
7182;BME280;3632;42.724;23.298;2023-05-03T05:07:02;95479.53;;;10.93;59.80
7182;BME280;3632;42.724;23.298;2023-05-03T05:09:32;95204.81;;;8.98;56.19
7182;BME280;3632;42.724;23.298;2023-05-03T05:12:00;95031.34;;;7.45;58.93
7182;BME280;3632;42.724;23.298;2023-05-03T05:14:29;95775.06;;;12.44;56.66
7182;BME280;3632;42.724;23.298;2023-05-03T05:17:10;95757.53;;;12.39;57.79
7182;BME280;3632;42.724;23.298;2023-05-03T05:19:44;95109.22;;;7.79;58.07
7182;BME280;3632;42.724;23.298;2023-05-03T05:22:18;95795.94;;;12.71;60.20
7182;BME280;3632;42.724;23.298;2023-05-03T05:24:45;95191.19;;;8.99;59.71
7182;BME280;3632;42.724;23.298;2023-05-03T05:27:13;95318.63;;;9.75;60.91
7182;BME280;3632;42.724;23.298;2023-05-03T05:29:40;95819.38;;;12.33;62.09
7182;BME280;3632;42.724;23.298;2023-05-03T05:32:07;95859.94;;;13.03;63.94
7182;BME280;3632;42.724;23.298;2023-05-03T05:34:42;95802.53;;;13.27;64.37
7182;BME280;3632;42.724;23.298;2023-05-03T05:37:20;95028.59;;;7.72;60.93
7182;BME280;3632;42.724;23.298;2023-05-03T05:39:50;95956.59;;;13.21;62.04
7182;BME280;3632;42.724;23.298;2023-05-03T05:42:18;95600.28;;;11.92;62.24
7182;BME280;3632;42.724;23.298;2023-05-03T05:44:45;95468.16;;;11.19;62.19
7182;BME280;3632;42.724;23.298;2023-05-03T05:47:15;95485.66;;;11.13;62.14
7182;BME280;3632;42.724;23.298;2023-05-03T05:49:45;95195.97;;;9.14;62.13
7182;BME280;3632;42.724;23.298;2023-05-03T05:52:12;95806.09;;;13.36;62.42
7182;BME280;3632;42.724;23.298;2023-05-03T05:54:42;95191.34;;;9.64;60.66
7182;BME280;3632;42.724;23.298;2023-05-03T05:57:20;95019.03;;;8.67;61.25
7182;BME280;3632;42.724;23.298;2023-05-03T05:59:53;94993.66;;;8.56;59.61
7182;BME280;3632;42.724;23.298;2023-05-03T06:02:48;95017.41;;;8.44;59.75
7182;BME280;3632;42.724;23.298;2023-05-03T06:05:35;95489.81;;;11.68;60.41
7182;BME280;3632;42.724;23.298;2023-05-03T06:08:07;95795.91;;;13.46;60.38
7182;BME280;3632;42.724;23.298;2023-05-03T06:10:45;95493.44;;;10.78;61.87
7182;BME280;3632;42.724;23.298;2023-05-03T06:13:23;95812.72;;;13.39;61.88
7182;BME280;3632;42.724;23.298;2023-05-03T06:16:00;95203.50;;;9.83;61.00
7182;BME280;3632;42.724;23.298;2023-05-03T06:18:27;95705.63;;;12.27;60.75
7182;BME280;3632;42.724;23.298;2023-05-03T06:20:55;95664.59;;;12.40;60.36
7182;BME280;3632;42.724;23.298;2023-05-03T06:23:23;95767.53;;;13.28;60.50
7182;BME280;3632;42.724;23.298;2023-05-03T06:25:52;95633.34;;;12.36;60.49
7182;BME280;3632;42.724;23.298;2023-05-03T06:28:19;95580.63;;;11.27;61.33
7182;BME280;3632;42.724;23.298;2023-05-03T06:30:48;95330.31;;;10.11;60.60
7182;BME280;3632;42.724;23.298;2023-05-03T06:33:24;95516.56;;;11.53;60.84
7182;BME280;3632;42.724;23.298;2023-05-03T06:35:57;95775.56;;;13.23;60.85
7182;BME280;3632;42.724;23.298;2023-05-03T06:38:30;95279.63;;;10.08;60.21
7182;BME280;3632;42.724;23.298;2023-05-03T06:41:01;95777.06;;;13.47;60.90
7182;BME280;3632;42.724;23.298;2023-05-03T06:43:29;95010.03;;;8.97;59.27
7182;BME280;3632;42.724;23.298;2023-05-03T06:45:56;95638.38;;;12.79;60.25
7182;BME280;3632;42.724;23.298;2023-05-03T06:48:23;95761.22;;;13.53;60.95
7182;BME280;3632;42.724;23.298;2023-05-03T06:50:58;94937.63;;;8.80;57.97
7182;BME280;3632;42.724;23.298;2023-05-03T06:53:31;95180.06;;;10.11;58.27
7182;BME280;3632;42.724;23.298;2023-05-03T06:55:59;95704.81;;;13.43;58.86
7182;BME280;3632;42.724;23.298;2023-05-03T06:58:28;95720.31;;;13.72;60.35
7182;BME280;3632;42.724;23.298;2023-05-03T07:00:54;95431.63;;;11.19;60.02
7182;BME280;3632;42.724;23.298;2023-05-03T07:03:22;95744.91;;;13.84;59.67
7182;BME280;3632;42.724;23.298;2023-05-03T07:05:49;95755.41;;;13.81;59.12
7182;BME280;3632;42.724;23.298;2023-05-03T07:08:21;95753.19;;;13.46;58.53
7182;BME280;3632;42.724;23.298;2023-05-03T07:10:48;95747.56;;;13.73;59.09
7182;BME280;3632;42.724;23.298;2023-05-03T07:13:14;95390.53;;;10.90;58.01
7182;BME280;3632;42.724;23.298;2023-05-03T07:15:41;95743.41;;;14.12;57.90
7182;BME280;3632;42.724;23.298;2023-05-03T07:18:10;95262.88;;;11.23;56.98
7182;BME280;3632;42.724;23.298;2023-05-03T07:20:36;95653.47;;;13.85;58.27
7182;BME280;3632;42.724;23.298;2023-05-03T07:23:04;95880.09;;;14.12;56.74
7182;BME280;3632;42.724;23.298;2023-05-03T07:25:36;95431.81;;;11.59;56.81
7182;BME280;3632;42.724;23.298;2023-05-03T07:28:04;95721.34;;;13.60;58.80
7182;BME280;3632;42.724;23.298;2023-05-03T07:30:31;95170.34;;;10.27;58.62
7182;BME280;3632;42.724;23.298;2023-05-03T07:32:58;95693.94;;;13.81;58.16
7182;BME280;3632;42.724;23.298;2023-05-03T07:35:28;95758.63;;;14.13;57.27
7182;BME280;3632;42.724;23.298;2023-05-03T07:37:55;95588.78;;;13.12;57.88
7182;BME280;3632;42.724;23.298;2023-05-03T07:40:22;95762.91;;;14.34;57.74
7182;BME280;3632;42.724;23.298;2023-05-03T07:42:50;95755.41;;;14.51;57.37
7182;BME280;3632;42.724;23.298;2023-05-03T07:45:17;95370.25;;;12.14;57.15
7182;BME280;3632;42.724;23.298;2023-05-03T07:47:45;95745.25;;;14.40;58.46
7182;BME280;3632;42.724;23.298;2023-05-03T07:50:12;95742.56;;;14.51;58.79
7182;BME280;3632;42.724;23.298;2023-05-03T07:52:40;95639.41;;;14.29;58.93
7182;BME280;3632;42.724;23.298;2023-05-03T07:55:08;95271.00;;;11.59;58.29
7182;BME280;3632;42.724;23.298;2023-05-03T07:57:37;95002.91;;;10.08;57.19
7182;BME280;3632;42.724;23.298;2023-05-03T08:00:17;95764.91;;;15.08;56.51
7182;BME280;3632;42.724;23.298;2023-05-03T08:02:44;95753.97;;;15.16;55.81
7182;BME280;3632;42.724;23.298;2023-05-03T08:05:11;95224.72;;;11.42;55.89
7182;BME280;3632;42.724;23.298;2023-05-03T08:07:38;95743.31;;;15.01;55.80
7182;BME280;3632;42.724;23.298;2023-05-03T08:10:06;95620.22;;;14.23;56.07
7182;BME280;3632;42.724;23.298;2023-05-03T08:12:33;95436.88;;;12.83;56.70
7182;BME280;3632;42.724;23.298;2023-05-03T08:15:01;95679.25;;;14.52;56.08
7182;BME280;3632;42.724;23.298;2023-05-03T08:17:39;95484.03;;;13.30;56.46
7182;BME280;3632;42.724;23.298;2023-05-03T08:20:07;95373.97;;;12.01;56.58
7182;BME280;3632;42.724;23.298;2023-05-03T08:22:34;95883.19;;;15.26;57.21
7182;BME280;3632;42.724;23.298;2023-05-03T08:25:02;95747.88;;;15.07;58.19
7182;BME280;3632;42.724;23.298;2023-05-03T08:27:29;95544.41;;;13.82;58.74
7182;BME280;3632;42.724;23.298;2023-05-03T08:29:56;95762.19;;;15.29;59.79
7182;BME280;3632;42.724;23.298;2023-05-03T08:32:24;95761.66;;;15.64;56.09
7182;BME280;3632;42.724;23.298;2023-05-03T08:34:53;95695.84;;;15.25;56.23
7182;BME280;3632;42.724;23.298;2023-05-03T08:37:21;95762.97;;;15.68;55.25
7182;BME280;3632;42.724;23.298;2023-05-03T08:39:48;95739.72;;;15.70;55.26
7182;BME280;3632;42.724;23.298;2023-05-03T08:42:15;95536.00;;;14.76;57.10
7182;BME280;3632;42.724;23.298;2023-05-03T08:44:44;95281.25;;;13.46;57.18
7182;BME280;3632;42.724;23.298;2023-05-03T08:47:16;95726.41;;;16.66;57.06
7182;BME280;3632;42.724;23.298;2023-05-03T08:49:44;95751.06;;;17.39;57.34
7182;BME280;3632;42.724;23.298;2023-05-03T08:52:13;95746.00;;;17.55;55.39
7182;BME280;3632;42.724;23.298;2023-05-03T08:54:43;95599.03;;;16.17;53.07
7182;BME280;3632;42.724;23.298;2023-05-03T08:57:13;95758.88;;;17.55;55.16
7182;BME280;3632;42.724;23.298;2023-05-03T08:59:50;95254.28;;;14.07;51.94
7182;BME280;3632;42.724;23.298;2023-05-03T09:02:18;95739.75;;;17.58;56.16
7182;BME280;3632;42.724;23.298;2023-05-03T09:04:45;95074.16;;;13.06;53.89
7182;BME280;3632;42.724;23.298;2023-05-03T09:07:14;95075.91;;;12.59;54.41
7182;BME280;3632;42.724;23.298;2023-05-03T09:09:41;95792.34;;;17.12;53.78
7182;BME280;3632;42.724;23.298;2023-05-03T09:12:08;95786.94;;;16.70;53.72
7182;BME280;3632;42.724;23.298;2023-05-03T09:14:43;95653.72;;;16.19;54.31
7182;BME280;3632;42.724;23.298;2023-05-03T09:17:14;95683.00;;;16.53;55.87
7182;BME280;3632;42.724;23.298;2023-05-03T09:19:52;95741.50;;;16.96;54.61
7182;BME280;3632;42.724;23.298;2023-05-03T09:22:21;95736.63;;;16.93;54.20
7182;BME280;3632;42.724;23.298;2023-05-03T09:24:52;95647.78;;;16.36;54.07
7182;BME280;3632;42.724;23.298;2023-05-03T09:27:20;95622.09;;;16.09;55.48
7182;BME280;3632;42.724;23.298;2023-05-03T09:29:47;95731.19;;;18.17;55.62
7182;BME280;3632;42.724;23.298;2023-05-03T09:32:15;95689.50;;;16.93;52.92
7182;BME280;3632;42.724;23.298;2023-05-03T09:34:43;95554.16;;;17.24;51.65
7182;BME280;3632;42.724;23.298;2023-05-03T09:37:11;95349.56;;;15.47;51.54
7182;BME280;3632;42.724;23.298;2023-05-03T09:39:41;95673.06;;;17.11;49.90
7182;BME280;3632;42.724;23.298;2023-05-03T09:42:10;95513.66;;;16.74;53.29
7182;BME280;3632;42.724;23.298;2023-05-03T09:44:46;95542.94;;;16.99;52.53
7182;BME280;3632;42.724;23.298;2023-05-03T09:47:16;95692.66;;;18.07;56.25
7182;BME280;3632;42.724;23.298;2023-05-03T09:49:44;95589.09;;;17.52;50.48
7182;BME280;3632;42.724;23.298;2023-05-03T09:52:11;95680.75;;;19.13;49.87
7182;BME280;3632;42.724;23.298;2023-05-03T09:54:42;95026.53;;;14.99;50.12
7182;BME280;3632;42.724;23.298;2023-05-03T09:57:09;95253.16;;;16.55;52.93
7182;BME280;3632;42.724;23.298;2023-05-03T09:59:39;95364.22;;;17.42;49.97
7182;BME280;3632;42.724;23.298;2023-05-03T10:02:07;95325.56;;;17.34;51.13
7182;BME280;3632;42.724;23.298;2023-05-03T10:04:39;95045.22;;;16.18;50.97
7182;BME280;3632;42.724;23.298;2023-05-03T10:07:11;95243.78;;;17.68;47.91
7182;BME280;3632;42.724;23.298;2023-05-03T10:09:43;95547.84;;;19.63;48.24
7182;BME280;3632;42.724;23.298;2023-05-03T10:12:12;95681.13;;;21.05;47.51
7182;BME280;3632;42.724;23.298;2023-05-03T10:14:53;95760.03;;;20.71;45.66
7182;BME280;3632;42.724;23.298;2023-05-03T10:17:27;95573.69;;;20.01;46.61
7182;BME280;3632;42.724;23.298;2023-05-03T10:19:59;95651.81;;;20.36;47.08
7182;BME280;3632;42.724;23.298;2023-05-03T10:22:31;95680.97;;;20.30;47.55
7182;BME280;3632;42.724;23.298;2023-05-03T10:25:09;95041.38;;;16.70;47.04
7182;BME280;3632;42.724;23.298;2023-05-03T10:27:41;95581.06;;;20.13;47.05
7182;BME280;3632;42.724;23.298;2023-05-03T10:30:26;95414.53;;;19.83;44.75
7182;BME280;3632;42.724;23.298;2023-05-03T10:32:53;95516.94;;;19.69;45.11
7182;BME280;3632;42.724;23.298;2023-05-03T10:35:20;95640.13;;;20.63;45.92
7182;BME280;3632;42.724;23.298;2023-05-03T10:37:51;95163.31;;;17.18;46.93
7182;BME280;3632;42.724;23.298;2023-05-03T10:40:19;95116.75;;;17.27;47.06
7182;BME280;3632;42.724;23.298;2023-05-03T10:42:49;95639.56;;;20.52;47.48
7182;BME280;3632;42.724;23.298;2023-05-03T10:45:23;95636.88;;;20.69;46.45
7182;BME280;3632;42.724;23.298;2023-05-03T10:48:24;95624.81;;;20.98;49.62
7182;BME280;3632;42.724;23.298;2023-05-03T10:50:53;95638.53;;;20.62;47.04
7182;BME280;3632;42.724;23.298;2023-05-03T10:53:41;95634.09;;;20.47;48.11
7182;BME280;3632;42.724;23.298;2023-05-03T10:56:11;95624.03;;;20.52;47.71
7182;BME280;3632;42.724;23.298;2023-05-03T10:58:42;95628.88;;;20.56;48.32
7182;BME280;3632;42.724;23.298;2023-05-03T11:01:15;95564.88;;;19.88;47.45
7182;BME280;3632;42.724;23.298;2023-05-03T11:03:48;95599.97;;;19.43;47.92
7182;BME280;3632;42.724;23.298;2023-05-03T11:06:30;95645.16;;;19.64;48.24
7182;BME280;3632;42.724;23.298;2023-05-03T11:09:03;95657.31;;;19.47;49.13
7182;BME280;3632;42.724;23.298;2023-05-03T11:11:34;95635.34;;;19.51;49.44
7182;BME280;3632;42.724;23.298;2023-05-03T11:14:02;95632.75;;;19.51;48.88
7182;BME280;3632;42.724;23.298;2023-05-03T11:16:29;95628.38;;;19.51;48.65
7182;BME280;3632;42.724;23.298;2023-05-03T11:18:56;95470.00;;;18.31;50.26
7182;BME280;3632;42.724;23.298;2023-05-03T11:21:23;95624.16;;;20.28;54.53
7182;BME280;3632;42.724;23.298;2023-05-03T11:23:50;95413.63;;;19.22;51.57
7182;BME280;3632;42.724;23.298;2023-05-03T11:26:17;95311.84;;;18.69;50.32
7182;BME280;3632;42.724;23.298;2023-05-03T11:28:49;95621.63;;;20.74;50.72
7182;BME280;3632;42.724;23.298;2023-05-03T11:31:16;95246.91;;;18.03;48.78
7182;BME280;3632;42.724;23.298;2023-05-03T11:33:42;95583.22;;;20.55;48.04
7182;BME280;3632;42.724;23.298;2023-05-03T11:36:09;95600.66;;;20.38;48.80
7182;BME280;3632;42.724;23.298;2023-05-03T11:38:38;95588.00;;;20.12;48.32
7182;BME280;3632;42.724;23.298;2023-05-03T11:41:12;95640.59;;;19.66;50.44
7182;BME280;3632;42.724;23.298;2023-05-03T11:43:41;95601.22;;;19.39;51.16
7182;BME280;3632;42.724;23.298;2023-05-03T11:46:09;95611.00;;;19.76;50.36
7182;BME280;3632;42.724;23.298;2023-05-03T11:48:37;95561.63;;;18.76;50.49
7182;BME280;3632;42.724;23.298;2023-05-03T11:51:08;95505.81;;;19.30;48.98
7182;BME280;3632;42.724;23.298;2023-05-03T11:53:36;95358.97;;;19.79;49.36
7182;BME280;3632;42.724;23.298;2023-05-03T11:56:06;95589.50;;;21.94;47.75
7182;BME280;3632;42.724;23.298;2023-05-03T11:58:34;95096.13;;;18.67;46.55
7182;BME280;3632;42.724;23.298;2023-05-03T12:01:01;95582.16;;;21.53;46.91
7182;BME280;3632;42.724;23.298;2023-05-03T12:03:31;95263.59;;;19.61;47.36
7182;BME280;3632;42.724;23.298;2023-05-03T12:06:00;95555.78;;;21.50;49.47
7182;BME280;3632;42.724;23.298;2023-05-03T12:08:28;95619.66;;;22.52;46.99
7182;BME280;3632;42.724;23.298;2023-05-03T12:10:55;95568.78;;;23.06;45.46
7182;BME280;3632;42.724;23.298;2023-05-03T12:13:29;95314.56;;;21.92;44.92
7182;BME280;3632;42.724;23.298;2023-05-03T12:15:57;95557.75;;;23.66;43.45
7182;BME280;3632;42.724;23.298;2023-05-03T12:18:25;95553.00;;;23.42;43.71
7182;BME280;3632;42.724;23.298;2023-05-03T12:20:57;95569.00;;;22.84;43.32
7182;BME280;3632;42.724;23.298;2023-05-03T12:23:24;95311.16;;;20.92;44.30
7182;BME280;3632;42.724;23.298;2023-05-03T12:25:51;95560.72;;;22.31;44.34
7182;BME280;3632;42.724;23.298;2023-05-03T12:28:18;95565.09;;;21.29;45.90
7182;BME280;3632;42.724;23.298;2023-05-03T12:30:45;95555.97;;;20.81;46.86
7182;BME280;3632;42.724;23.298;2023-05-03T12:33:12;95516.50;;;20.19;48.40
7182;BME280;3632;42.724;23.298;2023-05-03T12:35:40;95573.94;;;19.84;49.43
7182;BME280;3632;42.724;23.298;2023-05-03T12:38:08;95567.66;;;19.31;49.56
7182;BME280;3632;42.724;23.298;2023-05-03T12:40:34;95571.91;;;19.08;51.37
7182;BME280;3632;42.724;23.298;2023-05-03T12:43:02;95578.72;;;18.68;51.86
7182;BME280;3632;42.724;23.298;2023-05-03T12:45:29;95560.66;;;18.60;52.19
7182;BME280;3632;42.724;23.298;2023-05-03T12:47:56;95560.16;;;18.49;53.64
7182;BME280;3632;42.724;23.298;2023-05-03T12:50:23;95553.06;;;18.43;54.15
7182;BME280;3632;42.724;23.298;2023-05-03T12:52:50;95471.41;;;17.69;54.85
7182;BME280;3632;42.724;23.298;2023-05-03T12:55:18;95556.75;;;18.16;55.23
7182;BME280;3632;42.724;23.298;2023-05-03T12:57:44;95557.72;;;18.23;55.78
7182;BME280;3632;42.724;23.298;2023-05-03T13:00:12;95628.19;;;18.15;56.27
7182;BME280;3632;42.724;23.298;2023-05-03T13:02:41;95552.84;;;18.04;56.43
7182;BME280;3632;42.724;23.298;2023-05-03T13:05:08;94917.47;;;13.92;56.75
7182;BME280;3632;42.724;23.298;2023-05-03T13:07:35;95199.72;;;15.57;57.87
7182;BME280;3632;42.724;23.298;2023-05-03T13:10:01;95101.50;;;14.59;58.67
7182;BME280;3632;42.724;23.298;2023-05-03T13:12:30;95346.50;;;15.44;60.07
7182;BME280;3632;42.724;23.298;2023-05-03T13:14:57;95550.03;;;17.31;61.43
7182;BME280;3632;42.724;23.298;2023-05-03T13:17:26;95554.13;;;17.16;63.01
7182;BME280;3632;42.724;23.298;2023-05-03T13:19:54;95540.56;;;17.06;61.41
7182;BME280;3632;42.724;23.298;2023-05-03T13:22:21;95562.63;;;16.82;62.41
7182;BME280;3632;42.724;23.298;2023-05-03T13:24:48;95568.22;;;17.04;62.22
7182;BME280;3632;42.724;23.298;2023-05-03T13:27:15;95555.09;;;16.10;63.35
7182;BME280;3632;42.724;23.298;2023-05-03T13:29:44;95583.91;;;16.67;65.24